Time,TemperatureF,DewpointF,PressureIn,WindDirection,WindDirectionDegrees,WindSpeedMPH,WindSpeedGustMPH,Humidity,HourlyPrecipIn,Conditions,Clouds,dailyrainin,SoftwareType,DateUTC
2013-07-05 03:34:00,86.0,56.0,29.69,WNW,301,1.0,1.0,36,0.00,,,0.00,,2013-07-05 10:34:00,
2013-07-05 03:43:00,87.0,57.0,29.69,West,277,2.0,2.0,36,0.00,,,0.00,,2013-07-05 10:43:00,
2013-07-05 03:54:00,86.0,57.0,29.69,NNW,335,3.0,3.0,37,0.00,,,0.00,,2013-07-05 10:54:00,
2013-07-05 04:02:00,86.0,57.0,29.69,WSW,257,2.0,4.0,37,0.00,,,0.00,,2013-07-05 11:02:00,
2013-07-05 04:12:00,86.0,57.0,29.69,West,280,2.0,0.0,38,0.00,,,0.00,,2013-07-05 11:12:00,
2013-07-05 04:22:00,86.0,57.0,29.69,NW,307,1.0,1.0,38,0.00,,,0.00,,2013-07-05 11:22:00,
2013-07-05 04:34:00,85.0,57.0,29.69,WNW,287,2.0,0.0,39,0.00,,,0.00,,2013-07-05 11:34:00,
2013-07-05 04:44:00,85.0,58.0,29.70,WNW,287,0.0,0.0,40,0.00,,,0.00,,2013-07-05 11:44:00,
2013-07-05 04:53:00,85.0,59.0,29.70,NW,319,0.0,0.0,41,0.00,,,0.00,,2013-07-05 11:53:00,
2013-07-05 05:02:00,85.0,59.0,29.70,NW,319,0.0,0.0,41,0.00,,,0.00,,2013-07-05 12:02:00,
2013-07-05 05:11:00,85.0,59.0,29.70,North,356,2.0,0.0,42,0.00,,,0.00,,2013-07-05 12:11:00,
2013-07-05 05:22:00,85.0,59.0,29.70,NNW,328,1.0,0.0,42,0.00,,,0.00,,2013-07-05 12:22:00,
2013-07-05 05:33:00,85.0,60.0,29.70,ENE,75,3.0,3.0,43,0.00,,,0.00,,2013-07-05 12:33:00,
2013-07-05 05:43:00,85.0,59.0,29.70,NE,41,0.0,0.0,42,0.00,,,0.00,,2013-07-05 12:43:00,
2013-07-05 05:53:00,84.0,59.0,29.71,NNW,342,1.0,0.0,43,0.00,,,0.00,,2013-07-05 12:53:00,
2013-07-05 06:11:00,84.0,59.0,29.70,NNW,328,1.0,4.0,43,0.00,,,0.00,,2013-07-05 13:11:00,
2013-07-05 06:34:00,85.0,60.0,29.71,NNW,338,1.0,0.0,43,0.00,,,0.00,,2013-07-05 13:34:00,
2013-07-05 06:43:00,85.0,60.0,29.71,North,356,0.0,0.0,43,0.00,,,0.00,,2013-07-05 13:43:00,
2013-07-05 06:53:00,85.0,60.0,29.71,NW,325,4.0,4.0,43,0.00,,,0.00,,2013-07-05 13:53:00,
2013-07-05 07:03:00,86.0,59.0,29.72,NE,46,1.0,6.0,40,0.00,,,0.00,,2013-07-05 14:03:00,
2013-07-05 08:02:00,90.0,59.0,29.73,NE,39,12.0,12.0,35,0.00,,,0.00,,2013-07-05 15:02:00,
2013-07-05 08:12:00,90.0,59.0,29.73,NNE,17,11.0,11.0,36,0.00,,,0.00,,2013-07-05 15:12:00,
2013-07-05 08:33:00,92.0,58.0,29.74,NE,35,11.0,11.0,32,0.00,,,0.00,,2013-07-05 15:33:00,
2013-07-05 08:43:00,91.0,61.0,29.75,ENE,63,9.0,9.0,37,0.00,,,0.00,,2013-07-05 15:43:00,
2013-07-05 08:53:00,91.0,62.0,29.75,NE,44,13.0,14.0,38,0.00,,,0.00,,2013-07-05 15:53:00,
2013-07-05 09:01:00,92.0,63.0,29.75,NNE,28,9.0,9.0,38,0.00,,,0.00,,2013-07-05 16:01:00,
2013-07-05 09:22:00,93.0,62.0,29.76,NE,51,11.0,11.0,36,0.00,,,0.00,,2013-07-05 16:22:00,
2013-07-05 09:33:00,93.0,62.0,29.76,ENE,73,8.0,10.0,36,0.00,,,0.00,,2013-07-05 16:33:00,
2013-07-05 09:44:00,94.0,60.0,29.76,NE,55,9.0,12.0,32,0.00,,,0.00,,2013-07-05 16:44:00,
2013-07-05 10:11:00,95.0,60.0,29.76,NE,39,12.0,12.0,31,0.00,,,0.00,,2013-07-05 17:11:00,
2013-07-05 10:32:00,97.0,56.0,29.76,NNE,25,9.0,12.0,26,0.00,,,0.00,,2013-07-05 17:32:00,
2013-07-05 10:42:00,98.0,57.0,29.76,East,87,9.0,10.0,26,0.00,,,0.00,,2013-07-05 17:42:00,
2013-07-05 10:53:00,97.0,59.0,29.76,ENE,63,11.0,11.0,29,0.00,,,0.00,,2013-07-05 17:53:00,
2013-07-05 11:01:00,97.0,57.0,29.76,ENE,76,10.0,10.0,27,0.00,,,0.00,,2013-07-05 18:01:00,
2013-07-05 11:33:00,98.0,56.0,29.76,ENE,76,9.0,10.0,25,0.00,,,0.00,,2013-07-05 18:33:00,
2013-07-05 11:42:00,97.0,53.0,29.76,NE,51,11.0,11.0,23,0.00,,,0.00,,2013-07-05 18:42:00,
2013-07-05 11:53:00,96.0,54.0,29.76,ENE,76,6.0,9.0,25,0.00,,,0.00,,2013-07-05 18:53:00,
2013-07-05 12:01:00,97.0,55.0,29.76,ENE,68,6.0,8.0,25,0.00,,,0.00,,2013-07-05 19:01:00,
2013-07-05 12:12:00,96.0,53.0,29.76,NE,38,5.0,12.0,24,0.00,,,0.00,,2013-07-05 19:12:00,
2013-07-05 12:22:00,96.0,54.0,29.76,ENE,76,11.0,11.0,25,0.00,,,0.00,,2013-07-05 19:22:00,
2013-07-05 12:33:00,96.0,57.0,29.76,ENE,72,9.0,9.0,27,0.00,,,0.00,,2013-07-05 19:33:00,
2013-07-05 12:42:00,96.0,54.0,29.76,ENE,72,12.0,16.0,25,0.00,,,0.00,,2013-07-05 19:42:00,
2013-07-05 12:52:00,96.0,57.0,29.76,East,98,13.0,13.0,27,0.00,,,0.00,,2013-07-05 19:52:00,
2013-07-05 13:01:00,96.0,59.0,29.76,ENE,63,10.0,10.0,30,0.00,,,0.00,,2013-07-05 20:01:00,
2013-07-05 13:11:00,97.0,58.0,29.75,NE,56,12.0,13.0,28,0.00,,,0.00,,2013-07-05 20:11:00,
2013-07-05 13:53:00,98.0,56.0,29.74,NNE,17,7.0,9.0,25,0.00,,,0.00,,2013-07-05 20:53:00,
2013-07-05 14:01:00,100.0,54.0,29.73,North,4,11.0,11.0,22,0.00,,,0.00,,2013-07-05 21:01:00,
2013-07-05 14:11:00,101.0,55.0,29.73,NE,35,13.0,13.0,22,0.00,,,0.00,,2013-07-05 21:11:00,
2013-07-05 14:34:00,101.0,55.0,29.72,NE,46,11.0,19.0,22,0.00,,,0.00,,2013-07-05 21:34:00,
2013-07-05 14:42:00,100.0,53.0,29.71,ENE,69,12.0,13.0,21,0.00,,,0.00,,2013-07-05 21:42:00,
2013-07-05 14:53:00,100.0,52.0,29.71,ESE,105,15.0,15.0,20,0.00,,,0.00,,2013-07-05 21:53:00,
2013-07-05 15:01:00,100.0,52.0,29.71,ENE,65,11.0,19.0,20,0.00,,,0.00,,2013-07-05 22:01:00,
2013-07-05 15:11:00,100.0,50.0,29.70,East,86,15.0,15.0,19,0.00,,,0.00,,2013-07-05 22:11:00,
2013-07-05 15:33:00,100.0,50.0,29.69,East,83,11.0,14.0,19,0.00,,,0.00,,2013-07-05 22:33:00,
2013-07-05 15:43:00,100.0,52.0,29.69,NE,49,16.0,16.0,20,0.00,,,0.00,,2013-07-05 22:43:00,
2013-07-05 15:53:00,99.0,52.0,29.69,ENE,75,14.0,14.0,21,0.00,,,0.00,,2013-07-05 22:53:00,
2013-07-05 16:02:00,100.0,50.0,29.69,NE,38,17.0,17.0,19,0.00,,,0.00,,2013-07-05 23:02:00,
2013-07-05 16:11:00,101.0,51.0,29.69,ESE,107,13.0,13.0,19,0.00,,,0.00,,2013-07-05 23:11:00,
2013-07-05 16:32:00,100.0,46.0,29.68,East,79,14.0,17.0,16,0.00,,,0.00,,2013-07-05 23:32:00,
2013-07-05 16:42:00,100.0,46.0,29.68,ENE,72,11.0,11.0,16,0.00,,,0.00,,2013-07-05 23:42:00,
2013-07-05 16:53:00,100.0,47.0,29.68,East,91,13.0,13.0,17,0.00,,,0.00,,2013-07-05 23:53:00,
2013-07-05 17:01:00,100.0,47.0,29.67,ENE,70,13.0,19.0,17,0.00,,,0.00,,2013-07-06 00:01:00,
2013-07-05 17:11:00,100.0,47.0,29.67,ENE,72,15.0,15.0,17,0.00,,,0.00,,2013-07-06 00:11:00,
2013-07-05 17:42:00,100.0,50.0,29.67,ENE,65,17.0,17.0,19,0.00,,,0.00,,2013-07-06 00:42:00,
2013-07-05 17:53:00,100.0,49.0,29.67,ENE,66,12.0,15.0,18,0.00,,,0.00,,2013-07-06 00:53:00,
2013-07-05 18:01:00,99.0,49.0,29.66,NNE,23,13.0,17.0,19,0.00,,,0.00,,2013-07-06 01:01:00,
2013-07-05 18:11:00,98.0,50.0,29.66,NE,51,13.0,16.0,20,0.00,,,0.00,,2013-07-06 01:11:00,
2013-07-05 18:22:00,98.0,51.0,29.66,East,83,12.0,12.0,21,0.00,,,0.00,,2013-07-06 01:22:00,
2013-07-05 18:42:00,97.0,52.0,29.66,NE,55,14.0,15.0,22,0.00,,,0.00,,2013-07-06 01:42:00,
2013-07-05 18:52:00,97.0,51.0,29.66,ENE,66,15.0,15.0,21,0.00,,,0.00,,2013-07-06 01:52:00,
2013-07-05 19:02:00,96.0,50.0,29.66,East,79,14.0,14.0,21,0.00,,,0.00,,2013-07-06 02:02:00,
2013-07-05 21:01:00,92.0,45.0,29.68,ESE,103,7.0,7.0,20,0.00,,,0.00,,2013-07-06 04:01:00,
2013-07-05 21:12:00,91.0,46.0,29.69,East,83,6.0,7.0,21,0.00,,,0.00,,2013-07-06 04:12:00,
2013-07-05 21:22:00,91.0,46.0,29.68,East,79,9.0,9.0,21,0.00,,,0.00,,2013-07-06 04:22:00,
2013-07-05 21:33:00,92.0,44.0,29.69,ENE,76,7.0,8.0,19,0.00,,,0.00,,2013-07-06 04:33:00,